createdAt,value
2023-04-05T00:00:56.435Z,100969.41
2023-04-05T00:03:24.748Z,100973.66
2023-04-05T00:05:55.069Z,100967.53
2023-04-05T00:08:27.365Z,100970.22
2023-04-05T00:10:55.246Z,100978.91
2023-04-05T00:13:23.470Z,100971.09
2023-04-05T00:15:51.243Z,100974.78
2023-04-05T00:18:22.356Z,100975.06
2023-04-05T00:20:53.350Z,100968.16
2023-04-05T00:23:21.598Z,100972.22
2023-04-05T00:25:49.257Z,100973.91
2023-04-05T00:28:17.346Z,100975.97
2023-04-05T00:30:45.029Z,100974.66
2023-04-05T00:33:14.082Z,100970.81
2023-04-05T00:35:41.903Z,100976.06
2023-04-05T00:38:10.038Z,100973.13
2023-04-05T00:40:37.791Z,100978.81
2023-04-05T00:43:06.096Z,100977.03
2023-04-05T00:45:33.929Z,100972.69
2023-04-05T00:48:01.986Z,100968.25
2023-04-05T00:50:31.194Z,100971.59
2023-04-05T00:52:59.309Z,100970.41
2023-04-05T00:55:27.579Z,100968.34
2023-04-05T00:57:59.162Z,100964.75
2023-04-05T01:00:27.501Z,100960.72
2023-04-05T01:03:02.890Z,100956.38
2023-04-05T01:05:43.029Z,100959.44
2023-04-05T01:08:33.185Z,100954.69
2023-04-05T01:11:03.920Z,100962.00
2023-04-05T01:13:32.316Z,100956.88
2023-04-05T01:16:00.120Z,100953.81
2023-04-05T01:18:28.374Z,100960.63
2023-04-05T01:21:23.374Z,100961.53
2023-04-05T01:23:58.853Z,100964.09
2023-04-05T01:26:26.654Z,100963.09
2023-04-05T01:28:57.872Z,100965.50
2023-04-05T01:31:25.717Z,100957.47
2023-04-05T01:34:07.278Z,100957.22
2023-04-05T01:36:39.035Z,100951.06
2023-04-05T01:39:08.560Z,100948.38
2023-04-05T01:41:39.214Z,100951.25
2023-04-05T01:44:08.813Z,100952.13
2023-04-05T01:46:37.159Z,100954.50
2023-04-05T01:49:05.504Z,100952.84
2023-04-05T01:51:33.333Z,100950.06
2023-04-05T01:54:01.594Z,100948.38
2023-04-05T01:56:29.256Z,100949.88
2023-04-05T01:58:57.898Z,100953.44
2023-04-05T02:01:25.755Z,100949.78
2023-04-05T02:03:53.947Z,100954.13
2023-04-05T02:06:23.035Z,100946.34
2023-04-05T02:08:51.427Z,100948.13
2023-04-05T02:11:19.210Z,100945.03
2023-04-05T02:13:47.346Z,100947.91
2023-04-05T02:16:15.869Z,100951.88
2023-04-05T02:18:51.159Z,100949.09
2023-04-05T02:21:18.889Z,100948.41
2023-04-05T02:23:46.904Z,100948.97
2023-04-05T02:26:14.608Z,100950.66
2023-04-05T02:28:42.668Z,100948.09
2023-04-05T02:31:14.631Z,100947.69
2023-04-05T02:33:43.582Z,100944.34
2023-04-05T02:36:12.373Z,100941.06
2023-04-05T02:38:41.018Z,100947.16
2023-04-05T02:41:09.348Z,100954.19
2023-04-05T02:43:39.413Z,100948.88
2023-04-05T02:46:07.170Z,100954.91
2023-04-05T02:48:40.801Z,100953.75
2023-04-05T02:51:10.037Z,100946.63
2023-04-05T02:53:40.844Z,100950.38
2023-04-05T02:56:14.491Z,100948.13
2023-04-05T02:58:46.095Z,100946.91
2023-04-05T03:01:14.168Z,100951.69
2023-04-05T03:03:43.315Z,100951.06
2023-04-05T03:06:11.464Z,100947.91
2023-04-05T03:08:48.835Z,100949.00
2023-04-05T03:11:21.045Z,100949.78
2023-04-05T03:13:53.379Z,100944.75
2023-04-05T03:16:56.957Z,100942.38
2023-04-05T03:19:36.099Z,100947.50
2023-04-05T03:22:21.832Z,100947.63
2023-04-05T03:24:50.185Z,100947.91
2023-04-05T03:27:20.138Z,100941.19
2023-04-05T03:30:08.409Z,100941.88
2023-04-05T03:32:41.855Z,100953.22
2023-04-05T03:35:19.650Z,100943.25
2023-04-05T03:37:48.519Z,100951.06
2023-04-05T03:40:16.954Z,100941.31
2023-04-05T03:42:45.826Z,100943.69
2023-04-05T03:45:13.962Z,100947.97
2023-04-05T03:47:42.473Z,100946.50
2023-04-05T03:50:10.856Z,100947.19
2023-04-05T03:52:38.605Z,100949.34
2023-04-05T03:55:07.448Z,100941.66
2023-04-05T03:57:37.925Z,100945.59
2023-04-05T04:00:19.263Z,100945.88
2023-04-05T04:03:03.028Z,100945.81
2023-04-05T04:05:31.640Z,100947.19
2023-04-05T04:08:00.234Z,100947.69
2023-04-05T04:10:28.536Z,100946.41
2023-04-05T04:12:59.349Z,100947.69
2023-04-05T04:15:31.668Z,100946.63
2023-04-05T04:18:19.593Z,100943.66
2023-04-05T04:21:07.227Z,100944.91
2023-04-05T04:23:50.440Z,100943.75
2023-04-05T04:26:41.288Z,100951.13
2023-04-05T04:29:46.942Z,100943.94
2023-04-05T04:32:54.819Z,100941.53
2023-04-05T04:35:35.116Z,100932.66
2023-04-05T04:38:28.936Z,100938.41
2023-04-05T04:41:22.937Z,100941.63
2023-04-05T04:44:15.013Z,100943.63
2023-04-05T04:47:14.962Z,100935.06
2023-04-05T04:50:06.629Z,100939.19
2023-04-05T04:52:34.297Z,100942.75
2023-04-05T04:55:03.122Z,100946.78
2023-04-05T04:57:30.831Z,100953.13
2023-04-05T04:59:58.813Z,100947.00
2023-04-05T05:02:28.697Z,100952.63
2023-04-05T05:04:59.026Z,100949.88
2023-04-05T05:07:26.862Z,100948.50
2023-04-05T05:09:54.911Z,100954.63
2023-04-05T05:12:22.838Z,100953.72
2023-04-05T05:14:51.060Z,100959.31
2023-04-05T05:17:21.014Z,100959.84
2023-04-05T05:19:49.021Z,100961.31
2023-04-05T05:22:16.809Z,100958.16
2023-04-05T05:24:45.109Z,100958.78
2023-04-05T05:27:14.099Z,100965.38
2023-04-05T05:29:42.129Z,100966.09
2023-04-05T05:32:14.498Z,100958.97
2023-04-05T05:34:42.538Z,100960.66
2023-04-05T05:37:10.226Z,100964.09
2023-04-05T05:39:38.317Z,100970.00
2023-04-05T05:42:06.387Z,100968.53
2023-04-05T05:44:34.495Z,100970.09
2023-04-05T05:47:02.916Z,100969.72
2023-04-05T05:49:31.505Z,100974.88
2023-04-05T05:51:59.285Z,100976.31
2023-04-05T05:54:27.499Z,100977.06
2023-04-05T05:56:55.390Z,100978.84
2023-04-05T05:59:23.530Z,100978.41
2023-04-05T06:01:51.934Z,100981.00
2023-04-05T06:04:20.296Z,100987.41
2023-04-05T06:06:48.070Z,100977.59
2023-04-05T06:09:16.147Z,100979.66
2023-04-05T06:11:55.266Z,100987.38
2023-04-05T06:14:25.216Z,100985.31
2023-04-05T06:16:53.308Z,100992.94
2023-04-05T06:19:21.437Z,100982.09
2023-04-05T06:21:49.072Z,100982.16
2023-04-05T06:24:17.070Z,100984.69
2023-04-05T06:26:44.748Z,100982.25
2023-04-05T06:29:12.825Z,100978.81
2023-04-05T06:31:42.896Z,100986.13
2023-04-05T06:34:11.156Z,100982.09
2023-04-05T06:36:38.782Z,100991.53
2023-04-05T06:39:07.081Z,100985.53
2023-04-05T06:41:35.023Z,100993.53
2023-04-05T06:44:03.026Z,100991.22
2023-04-05T06:46:30.763Z,100985.63
2023-04-05T06:48:59.371Z,100994.88
2023-04-05T06:51:29.396Z,100988.84
2023-04-05T06:53:57.454Z,100987.00
2023-04-05T06:56:25.115Z,100983.72
2023-04-05T06:58:53.444Z,100985.84
2023-04-05T07:01:21.162Z,100985.63
2023-04-05T07:03:49.202Z,100987.06
2023-04-05T07:06:16.875Z,100986.28
2023-04-05T07:08:45.095Z,100986.47
2023-04-05T07:11:14.190Z,100984.44
2023-04-05T07:13:42.185Z,100985.69
2023-04-05T07:16:09.918Z,100986.81
2023-04-05T07:18:38.006Z,100994.88
2023-04-05T07:21:05.673Z,100995.97
2023-04-05T07:23:33.842Z,100984.66
2023-04-05T07:26:05.616Z,100989.69
2023-04-05T07:28:36.183Z,100992.38
2023-04-05T07:31:04.476Z,100997.13
2023-04-05T07:33:33.063Z,101007.69
2023-04-05T07:36:00.792Z,100995.88
2023-04-05T07:38:30.496Z,100998.41
2023-04-05T07:40:58.993Z,100993.66
2023-04-05T07:43:27.162Z,101001.38
2023-04-05T07:46:01.908Z,101016.44
2023-04-05T07:48:30.124Z,101017.28
2023-04-05T07:51:02.903Z,101009.41
2023-04-05T07:53:30.917Z,101005.13
2023-04-05T07:55:59.418Z,101013.34
2023-04-05T07:58:30.732Z,101015.88
2023-04-05T08:01:01.952Z,101018.09
2023-04-05T08:03:30.792Z,101014.28
2023-04-05T08:05:58.656Z,101024.53
2023-04-05T08:08:26.682Z,101015.53
2023-04-05T08:10:54.384Z,101018.91
2023-04-05T08:13:22.504Z,101015.69
2023-04-05T08:15:50.259Z,101010.81
2023-04-05T08:18:19.504Z,101015.34
2023-04-05T08:20:51.351Z,101020.09
2023-04-05T08:23:19.584Z,101022.00
2023-04-05T08:25:47.499Z,101027.34
2023-04-05T08:28:15.682Z,101032.59
2023-04-05T08:30:43.728Z,101022.41
2023-04-05T08:33:12.034Z,101026.75
2023-04-05T08:35:40.092Z,101020.59
2023-04-05T08:38:08.173Z,101032.13
2023-04-05T08:40:43.498Z,101020.47
2023-04-05T08:43:11.733Z,101017.53
2023-04-05T08:45:52.151Z,101027.81
2023-04-05T08:48:20.819Z,101032.88
2023-04-05T08:50:52.862Z,101031.84
2023-04-05T08:53:21.626Z,101033.25
2023-04-05T08:55:51.180Z,101023.72
2023-04-05T08:58:22.537Z,101028.50
2023-04-05T09:00:53.632Z,101030.84
2023-04-05T09:03:23.535Z,101027.53
2023-04-05T09:05:52.632Z,101034.13
2023-04-05T09:08:23.882Z,101026.09
2023-04-05T09:10:52.139Z,101018.66
2023-04-05T09:13:20.248Z,101018.47
2023-04-05T09:15:48.461Z,101017.75
2023-04-05T09:18:26.134Z,101017.81
2023-04-05T09:21:03.165Z,101010.88
2023-04-05T09:23:31.418Z,101009.00
2023-04-05T09:25:59.102Z,101013.59
2023-04-05T09:28:43.368Z,101023.47
2023-04-05T09:31:29.588Z,101017.47
2023-04-05T09:34:00.441Z,101003.03
2023-04-05T09:36:28.555Z,101004.91
2023-04-05T09:39:04.923Z,101010.59
2023-04-05T09:41:33.112Z,101001.78
2023-04-05T09:44:01.250Z,101001.88
2023-04-05T09:46:34.526Z,101000.53
2023-04-05T09:49:04.186Z,101002.59
2023-04-05T09:51:33.080Z,101006.63
2023-04-05T09:54:02.599Z,101006.69
2023-04-05T09:56:31.853Z,100997.91
2023-04-05T09:59:05.071Z,101004.94
2023-04-05T10:01:33.080Z,100999.22
2023-04-05T10:04:01.619Z,101002.03
2023-04-05T10:06:47.523Z,101000.47
2023-04-05T10:09:18.138Z,100999.22
2023-04-05T10:11:46.292Z,100990.75
2023-04-05T10:14:15.031Z,100984.22
2023-04-05T10:16:54.023Z,100983.28
2023-04-05T10:19:41.389Z,100975.72
2023-04-05T10:22:13.750Z,100984.31
2023-04-05T10:24:49.304Z,100984.94
2023-04-05T10:27:40.034Z,100982.69
2023-04-05T10:30:09.444Z,100978.16
2023-04-05T10:32:56.210Z,100981.72
2023-04-05T10:35:44.628Z,100982.94
2023-04-05T10:38:17.865Z,100980.38
2023-04-05T10:40:48.684Z,100972.44
2023-04-05T10:43:19.504Z,100968.47
2023-04-05T10:45:48.848Z,100970.69
2023-04-05T10:48:28.717Z,100966.25
2023-04-05T10:50:58.254Z,100968.78
2023-04-05T10:53:26.068Z,100960.28
2023-04-05T10:55:56.263Z,100957.13
2023-04-05T10:58:25.698Z,100962.09
2023-04-05T11:00:54.928Z,100963.34
2023-04-05T11:03:41.570Z,100962.97
2023-04-05T11:06:19.181Z,100954.09
2023-04-05T11:08:47.416Z,100947.31
2023-04-05T11:11:19.450Z,100962.22
2023-04-05T11:13:51.269Z,100949.69
2023-04-05T11:16:19.730Z,100943.38
2023-04-05T11:18:48.488Z,100944.25
2023-04-05T11:21:26.420Z,100944.91
2023-04-05T11:24:12.397Z,100941.97
2023-04-05T11:26:40.516Z,100936.66
2023-04-05T11:29:08.495Z,100935.63
2023-04-05T11:31:36.722Z,100938.94
2023-04-05T11:34:11.388Z,100937.75
2023-04-05T11:36:42.315Z,100943.78
2023-04-05T11:39:18.933Z,100931.94
2023-04-05T11:41:48.062Z,100937.72
2023-04-05T11:44:16.617Z,100925.41
2023-04-05T11:46:46.741Z,100925.78
2023-04-05T11:49:14.722Z,100928.13
2023-04-05T11:51:43.054Z,100921.28
2023-04-05T11:54:10.822Z,100905.41
2023-04-05T11:56:38.954Z,100907.97
2023-04-05T11:59:07.835Z,100903.63
2023-04-05T12:01:36.667Z,100917.25
2023-04-05T12:04:07.821Z,100915.78
2023-04-05T12:06:35.906Z,100907.47
2023-04-05T12:09:07.147Z,100907.44
2023-04-05T12:11:35.416Z,100908.41
2023-04-05T12:14:03.144Z,100901.16
2023-04-05T12:16:31.372Z,100897.69
2023-04-05T12:19:00.084Z,100888.34
2023-04-05T12:21:28.438Z,100889.72
2023-04-05T12:23:56.200Z,100890.09
2023-04-05T12:26:24.474Z,100886.31
2023-04-05T12:28:53.379Z,100895.44
2023-04-05T12:31:40.456Z,100892.31
2023-04-05T12:34:08.919Z,100890.31
2023-04-05T12:36:37.595Z,100875.88
2023-04-05T12:39:09.266Z,100878.06
2023-04-05T12:41:38.030Z,100876.91
2023-04-05T12:44:06.320Z,100877.00
2023-04-05T12:46:44.332Z,100884.81
2023-04-05T12:49:19.064Z,100879.13
2023-04-05T12:51:47.775Z,100873.06
2023-04-05T12:54:22.057Z,100859.78
2023-04-05T12:56:54.658Z,100857.03
2023-04-05T12:59:23.011Z,100863.41
2023-04-05T13:01:51.666Z,100854.28
2023-04-05T13:04:19.570Z,100861.75
2023-04-05T13:06:48.008Z,100852.25
2023-04-05T13:09:16.021Z,100864.34
2023-04-05T13:11:44.085Z,100854.97
2023-04-05T13:14:11.792Z,100855.34
2023-04-05T13:16:40.030Z,100843.00
2023-04-05T13:19:07.766Z,100843.97
2023-04-05T13:21:35.827Z,100842.34
2023-04-05T13:24:03.461Z,100838.94
2023-04-05T13:26:31.512Z,100834.13
2023-04-05T13:28:59.155Z,100834.69
2023-04-05T13:31:27.460Z,100830.22
2023-04-05T13:33:55.352Z,100828.09
2023-04-05T13:36:23.352Z,100835.53
2023-04-05T13:38:51.002Z,100843.47
2023-04-05T13:41:19.029Z,100828.53
2023-04-05T13:43:46.733Z,100830.31
2023-04-05T13:46:14.792Z,100832.94
2023-04-05T13:48:42.562Z,100831.44
2023-04-05T13:51:10.940Z,100820.25
2023-04-05T13:53:38.550Z,100824.50
2023-04-05T13:56:07.138Z,100809.59
2023-04-05T13:58:34.847Z,100816.06
2023-04-05T14:01:03.326Z,100822.03
2023-04-05T14:03:31.395Z,100811.16
2023-04-05T14:05:59.602Z,100821.53
2023-04-05T14:08:27.319Z,100802.19
2023-04-05T14:10:55.644Z,100806.53
2023-04-05T14:13:23.287Z,100799.75
2023-04-05T14:15:51.332Z,100803.28
2023-04-05T14:18:19.036Z,100807.59
2023-04-05T14:20:46.995Z,100799.16
2023-04-05T14:23:14.756Z,100793.44
2023-04-05T14:25:42.927Z,100794.03
2023-04-05T14:28:10.827Z,100784.56
2023-04-05T14:30:39.115Z,100791.63
2023-04-05T14:33:06.988Z,100794.38
2023-04-05T14:35:35.299Z,100789.63
2023-04-05T14:38:02.976Z,100794.38
2023-04-05T14:40:31.085Z,100798.19
2023-04-05T14:42:58.757Z,100782.38
2023-04-05T14:45:27.430Z,100784.88
2023-04-05T14:47:56.139Z,100781.19
2023-04-05T14:50:24.197Z,100782.16
2023-04-05T14:52:53.045Z,100779.59
2023-04-05T14:55:21.057Z,100773.38
2023-04-05T14:57:48.739Z,100784.63
2023-04-05T15:00:17.522Z,100778.19
2023-04-05T15:02:45.475Z,100775.38
2023-04-05T15:05:13.621Z,100772.25
2023-04-05T15:07:41.449Z,100777.03
2023-04-05T15:10:09.625Z,100778.09
2023-04-05T15:12:37.321Z,100780.63
2023-04-05T15:15:05.556Z,100785.25
2023-04-05T15:17:33.789Z,100780.25
2023-04-05T15:20:01.813Z,100778.34
2023-04-05T15:22:29.647Z,100783.38
2023-04-05T15:24:57.764Z,100777.91
2023-04-05T15:27:25.763Z,100774.19
2023-04-05T15:29:53.716Z,100776.06
2023-04-05T15:32:21.536Z,100785.31
2023-04-05T15:34:49.642Z,100773.34
2023-04-05T15:37:17.590Z,100774.75
2023-04-05T15:39:45.605Z,100769.72
2023-04-05T15:42:13.297Z,100767.94
2023-04-05T15:44:43.266Z,100775.16
2023-04-05T15:47:13.917Z,100769.91
2023-04-05T15:49:43.635Z,100772.03
2023-04-05T15:52:11.963Z,100768.16
2023-04-05T15:54:40.474Z,100762.03
2023-04-05T15:57:08.217Z,100755.84
2023-04-05T15:59:36.420Z,100753.44
2023-04-05T16:02:04.493Z,100754.63
2023-04-05T16:04:32.622Z,100754.53
2023-04-05T16:07:00.265Z,100761.66
2023-04-05T16:09:28.654Z,100770.44
2023-04-05T16:11:56.489Z,100762.94
2023-04-05T16:14:24.613Z,100767.97
2023-04-05T16:16:54.248Z,100763.75
2023-04-05T16:19:23.635Z,100750.44
2023-04-05T16:21:52.966Z,100752.78
2023-04-05T16:24:21.241Z,100749.63
2023-04-05T16:26:49.044Z,100750.31
2023-04-05T16:29:17.183Z,100763.06
2023-04-05T16:31:47.654Z,100770.03
2023-04-05T16:34:16.337Z,100765.78
2023-04-05T16:36:44.242Z,100774.53
2023-04-05T16:39:12.341Z,100766.81
2023-04-05T16:41:40.085Z,100779.56
2023-04-05T16:44:08.714Z,100768.25
2023-04-05T16:46:36.604Z,100766.66
2023-04-05T16:49:05.029Z,100776.44
2023-04-05T16:51:34.255Z,100783.25
2023-04-05T16:54:02.613Z,100782.75
2023-04-05T16:56:30.634Z,100780.88
2023-04-05T16:58:58.946Z,100783.97
2023-04-05T17:01:27.798Z,100789.84
2023-04-05T17:03:57.714Z,100786.50
2023-04-05T17:06:25.583Z,100787.91
2023-04-05T17:08:54.313Z,100792.97
2023-04-05T17:11:22.382Z,100793.81
2023-04-05T17:13:50.981Z,100792.31
2023-04-05T17:16:18.908Z,100798.38
2023-04-05T17:18:47.197Z,100794.31
2023-04-05T17:21:15.209Z,100799.81
2023-04-05T17:23:43.249Z,100801.72
2023-04-05T17:26:11.093Z,100806.59
2023-04-05T17:28:39.183Z,100802.31
2023-04-05T17:31:07.080Z,100812.28
2023-04-05T17:33:35.559Z,100807.22
2023-04-05T17:36:04.434Z,100808.19
2023-04-05T17:38:32.860Z,100809.16
2023-04-05T17:41:00.610Z,100810.16
2023-04-05T17:43:28.975Z,100814.91
2023-04-05T17:45:56.848Z,100818.41
2023-04-05T17:48:25.389Z,100817.31
2023-04-05T17:50:53.077Z,100831.03
2023-04-05T17:53:21.574Z,100823.00
2023-04-05T17:55:49.275Z,100828.66
2023-04-05T17:58:19.443Z,100830.44
2023-04-05T18:00:47.123Z,100827.06
2023-04-05T18:03:15.506Z,100834.31
2023-04-05T18:05:43.697Z,100840.06
2023-04-05T18:08:12.210Z,100843.13
2023-04-05T18:10:40.262Z,100850.28
2023-04-05T18:13:09.365Z,100858.47
2023-04-05T18:15:38.610Z,100858.81
2023-04-05T18:18:07.534Z,100860.84
2023-04-05T18:20:35.869Z,100864.78
2023-04-05T18:23:04.332Z,100869.66
2023-04-05T18:25:32.186Z,100867.78
2023-04-05T18:28:04.600Z,100873.22
2023-04-05T18:30:38.262Z,100868.63
2023-04-05T18:33:07.376Z,100882.88
2023-04-05T18:35:35.802Z,100887.13
2023-04-05T18:38:04.868Z,100891.41
2023-04-05T18:40:33.229Z,100899.09
2023-04-05T18:43:01.640Z,100894.81
2023-04-05T18:45:29.506Z,100908.06
2023-04-05T18:47:57.773Z,100912.81
2023-04-05T18:50:25.649Z,100913.78
2023-04-05T18:52:54.168Z,100919.25
2023-04-05T18:55:21.916Z,100914.88
2023-04-05T18:57:50.224Z,100917.06
2023-04-05T19:00:18.342Z,100929.03
2023-04-05T19:02:46.822Z,100926.81
2023-04-05T19:05:14.972Z,100933.78
2023-04-05T19:07:43.108Z,100938.50
2023-04-05T19:10:11.036Z,100949.06
2023-04-05T19:12:39.335Z,100943.84
2023-04-05T19:15:07.996Z,100946.03
2023-04-05T19:17:36.338Z,100944.66
2023-04-05T19:20:04.526Z,100951.72
2023-04-05T19:22:33.308Z,100961.31
2023-04-05T19:25:01.488Z,100959.75
2023-04-05T19:27:35.964Z,100964.16
2023-04-05T19:30:08.231Z,100966.06
2023-04-05T19:32:36.488Z,100965.28
2023-04-05T19:35:04.552Z,100962.25
2023-04-05T19:37:32.684Z,100963.63
2023-04-05T19:40:01.637Z,100965.06
2023-04-05T19:42:29.878Z,100970.91
2023-04-05T19:44:58.265Z,100974.81
2023-04-05T19:47:26.664Z,100972.44
2023-04-05T19:49:56.436Z,100979.22
2023-04-05T19:52:33.841Z,100969.25
2023-04-05T19:55:02.231Z,100979.06
2023-04-05T19:57:31.539Z,100990.59
2023-04-05T19:59:59.367Z,100979.34
2023-04-05T20:02:39.847Z,100980.78
2023-04-05T20:05:10.606Z,100973.81
2023-04-05T20:07:38.770Z,100988.75
2023-04-05T20:10:14.446Z,100981.88
2023-04-05T20:12:42.500Z,100981.53
2023-04-05T20:15:11.809Z,100990.56
2023-04-05T20:17:43.127Z,100991.78
2023-04-05T20:20:11.411Z,100985.81
2023-04-05T20:22:39.511Z,100991.41
2023-04-05T20:25:33.265Z,100998.78
2023-04-05T20:28:01.336Z,100994.59
2023-04-05T20:30:29.737Z,100999.94
2023-04-05T20:32:59.219Z,101011.56
2023-04-05T20:35:34.268Z,101011.66
2023-04-05T20:38:02.588Z,101009.31
2023-04-05T20:40:30.357Z,101012.97
2023-04-05T20:42:58.418Z,101015.22
2023-04-05T20:45:26.319Z,101019.00
2023-04-05T20:47:54.509Z,101017.38
2023-04-05T20:50:22.391Z,101020.66
2023-04-05T20:52:51.465Z,101026.63
2023-04-05T20:55:19.161Z,101024.03
2023-04-05T20:57:47.185Z,101021.38
2023-04-05T21:00:15.064Z,101017.91
2023-04-05T21:02:43.233Z,101021.06
2023-04-05T21:05:11.225Z,101030.00
2023-04-05T21:07:39.336Z,101033.28
2023-04-05T21:10:07.311Z,101029.13
2023-04-05T21:12:35.455Z,101038.88
2023-04-05T21:15:03.195Z,101032.44
2023-04-05T21:17:31.346Z,101041.25
2023-04-05T21:19:59.015Z,101038.91
2023-04-05T21:22:27.161Z,101033.63
2023-04-05T21:24:54.834Z,101040.47
2023-04-05T21:27:22.978Z,101044.81
2023-04-05T21:29:50.676Z,101036.63
2023-04-05T21:32:18.908Z,101041.88
2023-04-05T21:34:46.743Z,101043.72
2023-04-05T21:37:14.829Z,101045.44
2023-04-05T21:39:42.606Z,101046.63
2023-04-05T21:42:10.609Z,101045.69
2023-04-05T21:44:38.325Z,101049.84
2023-04-05T21:47:06.599Z,101047.66
2023-04-05T21:49:34.428Z,101048.94
2023-04-05T21:52:02.510Z,101050.47
2023-04-05T21:54:30.257Z,101049.25
2023-04-05T21:56:58.565Z,101047.00
2023-04-05T21:59:26.343Z,101056.19
2023-04-05T22:01:54.757Z,101052.81
2023-04-05T22:04:24.140Z,101059.28
2023-04-05T22:06:53.468Z,101049.94
2023-04-05T22:09:21.535Z,101056.50
2023-04-05T22:11:50.546Z,101056.09
2023-04-05T22:14:18.229Z,101062.03
2023-04-05T22:16:46.354Z,101057.28
2023-04-05T22:19:14.878Z,101057.56
2023-04-05T22:21:43.195Z,101054.81
2023-04-05T22:24:11.509Z,101061.50
2023-04-05T22:26:40.187Z,101062.59
2023-04-05T22:29:08.189Z,101067.94
2023-04-05T22:31:39.132Z,101061.94
2023-04-05T22:34:07.008Z,101067.53
2023-04-05T22:36:35.144Z,101070.13
2023-04-05T22:39:02.814Z,101064.88
2023-04-05T22:41:30.824Z,101067.84
2023-04-05T22:43:58.621Z,101067.13
2023-04-05T22:46:26.670Z,101069.53
2023-04-05T22:48:55.362Z,101069.53
2023-04-05T22:51:23.504Z,101068.25
2023-04-05T22:53:51.348Z,101067.25
2023-04-05T22:56:21.690Z,101065.06
2023-04-05T22:58:49.833Z,101066.38
2023-04-05T23:01:19.302Z,101069.03
2023-04-05T23:03:47.296Z,101064.41
2023-04-05T23:06:16.135Z,101064.28
2023-04-05T23:08:43.846Z,101060.00
2023-04-05T23:11:12.035Z,101063.88
2023-04-05T23:13:39.791Z,101071.84
2023-04-05T23:16:08.056Z,101072.13
2023-04-05T23:18:35.867Z,101073.63
2023-04-05T23:21:04.308Z,101065.16
2023-04-05T23:23:32.019Z,101077.91
2023-04-05T23:26:00.125Z,101075.22
2023-04-05T23:28:27.865Z,101076.88
2023-04-05T23:30:56.073Z,101076.47
2023-04-05T23:33:23.745Z,101079.63
2023-04-05T23:35:51.865Z,101081.44
2023-04-05T23:38:19.623Z,101082.75
2023-04-05T23:40:47.637Z,101084.44
2023-04-05T23:43:15.770Z,101082.75
2023-04-05T23:45:43.864Z,101087.56
2023-04-05T23:48:11.602Z,101083.34
2023-04-05T23:50:39.906Z,101088.34
2023-04-05T23:53:07.601Z,101080.88
2023-04-05T23:55:43.174Z,101084.44
2023-04-05T23:58:11.014Z,101075.50
